Startpagina
METAR-TAF:

METAR-TAF

Vliegvelden :

Karachi, Pakistan

breedte: 24-54N, lengte: 067-08E, hoogte: 21 m

Actueel weer

Dit bericht is 34 minuten geleden gemaakt, om 23:25 UTC
Wind 8 kt uit het zuidwesten
Temperatuur 29°C
Vochtigheid 79%
Druk 998 hPa
Zicht: 6000 m
Gebroken wolken op 2000 ft

METAR: OPKC 172325Z 22008KT 6000 BKN020 29/25 Q0998 NOSIG

Tijdstip: 04:59 (23:59 UTC)

Verwachting

Dit bericht is 1 uur en het 59 minuten geleden gemaakt, om 22:00 UTC
Verwachting geldig van 18 om 00 UTC tot 19 om 06 UTC
Wind 10 kt uit het westzuidwesten met uitschieters tot 20 kt
Zicht: 5000 m
Verspreide wolken op 1800 ft
Gebroken wolken op 2000 ft
Heiigheid
Van UTC
Wind 12 kt uit het zuidwesten met uitschieters tot 22 kt
Zicht: 6000 m
Verspreide wolken op 1800 ft
Van UTC
Wind 12 kt uit het westzuidwesten met uitschieters tot 22 kt
Zicht: 5000 m
Verspreide wolken op 1800 ft
Heiigheid

TAF: OPKC 172200Z 1800/1906 24010G20KT 5000 HZ SCT018 BKN020 FM 180600Z 23012G22KT 6000 SCT018 FM 182200Z 25012G22KT 5000 HZ SCT018

Waarnemingen en weersverwachtingen van meer dan 4000 vliegvelden (METAR en TAF).

De beschikbare stations zijn de gele en rode punten op de kaart.

Ga met uw muis naar het station om de naam te zien.

Klik dan om waarnemingen en weersverwachtingen te zien.

kaart wijzigen: klik op de groene knoppen met een zwart kruis om in te zoomen, op de groene knop met een streepje om uit te zoomen of op de groene pijlen voor aangrenzende kaarten.


METAR-TAF: